Weather at Heydar Aliyev International Airport

Public forecast

Using degrees Celsius for public forecast. Weather courtesy of forecast.io.

Current aviation weather report (METAR) for Heydar Aliyev International Airport

Report is more than 6 hours old.

2022/11/14 15:30 (retrieved 2 years ago)

UBBB 141530Z 29006KT 9999 -RA OVC030 11/10 Q1021 NOSIG

Aviation forecast (TAF) for Heydar Aliyev International Airport

Forecast is more than 12 hours old.

2023/02/22 18:12 (retrieved 1 year ago)

TAF TAF UBBB 221708Z 2218/2318 36010KT CAVOK TX08/2310Z TN03/2303Z TEMPO 2218/2224 FEW012 TEMPO 2300/2305 33006KT 6000 SCT006 BECMG 2306/2308 36016G26KT 9999 SCT010 OVC030 TEMPO 2310/2318 02022G32KT 5000 -SHRA SCT008 SCT030CB